KOAJ Airport (Albert J Ellis) Information

FAA: OAJ - ICAO: KOAJ

KOAJ Airport Location

State North Carolina
County Onslow
City Jacksonville
KOAJ Airport is 10 miles northwest of Jacksonville, NC.
Latitude 34-49-45.0000N
Longitude 077-36-43.7000W
Elevation 92ft

KOAJ Airport METARs

METAR KOAJ 060756Z AUTO 23003KT 10SM FEW039 24/23 A2999 RMK AO2 SLP158 T02440233
Altimeter 29.99"
Temperature 24.4°C (75.9°F)
Wind 230° at 3KT
Clouds few at 3,900ft
Visibility 10.0mi
Time observed: 2022-07-06T07:56:00Z

KOAJ Airport Details

Status Operational
Activation February 1971
Ownership Public
Usage Public
Chart CHARLOTTE
ATC on-site Yes
Beacon schedule sunset-sunrise
Beacon color clear green

KOAJ Airport Contacts

Owner ONSLOW COUNTY
Owner address 234 NW CORRIDOR BLVD, JACKSONVILLE, NC 28540
Owner phone 910-347-4717
Manager TERRY CLARK
Manager address 3101 9TH AVE DR NW, HICKORY, NC 28601
Manager phone 828-323-7408

KOAJ Airport (Albert J Ellis) Radio Frequencies

KOAJ (Airport) Radio Frequencies

UNICOM 122.95
Common traffic advisory frequency (CTAF) 132.65